Time,TemperatureF,DewpointF,PressureIn,WindDirection,WindDirectionDegrees,WindSpeedMPH,WindSpeedGustMPH,Humidity,HourlyPrecipIn,Conditions,Clouds,dailyrainin,SolarRadiationWatts/m^2,SoftwareType,DateUTC
2013-07-02 00:06:00,62.0,54.0,30.01,NE,51,0.0,-999.0,75,-99.99,,,0.00,0,weatherlink.com 1.10,2013-07-02 05:06:00,
2013-07-02 00:21:00,62.0,54.0,30.01,NE,51,0.0,-999.0,75,-99.99,,,0.00,0,weatherlink.com 1.10,2013-07-02 05:21:00,
2013-07-02 00:36:00,61.6,54.0,30.01,NE,51,0.0,-999.0,76,-99.99,,,0.00,0,weatherlink.com 1.10,2013-07-02 05:36:00,
2013-07-02 00:51:00,62.6,54.0,30.00,NE,46,3.0,-999.0,73,-99.99,,,0.00,0,weatherlink.com 1.10,2013-07-02 05:51:00,
2013-07-02 01:06:00,62.1,54.0,30.01,NE,46,0.0,-999.0,74,-99.99,,,0.00,0,weatherlink.com 1.10,2013-07-02 06:06:00,
2013-07-02 01:21:00,61.8,54.0,30.00,NE,43,0.0,-999.0,75,-99.99,,,0.00,0,weatherlink.com 1.10,2013-07-02 06:21:00,
2013-07-02 01:36:00,60.2,53.0,30.00,NNE,31,0.0,-999.0,78,-99.99,,,0.00,0,weatherlink.com 1.10,2013-07-02 06:36:00,
2013-07-02 01:51:00,60.9,53.0,30.00,NE,46,0.0,-999.0,75,-99.99,,,0.00,0,weatherlink.com 1.10,2013-07-02 06:51:00,
2013-07-02 02:06:00,59.8,53.0,30.00,NNE,29,2.0,-999.0,77,-99.99,,,0.00,0,weatherlink.com 1.10,2013-07-02 07:06:00,
2013-07-02 02:21:00,59.8,53.0,29.99,NNE,19,4.0,-999.0,78,-99.99,,,0.00,0,weatherlink.com 1.10,2013-07-02 07:21:00,
2013-07-02 02:36:00,59.5,53.0,29.99,NNE,21,6.0,-999.0,78,-99.99,,,0.00,0,weatherlink.com 1.10,2013-07-02 07:36:00,
2013-07-02 02:51:00,59.2,53.0,29.99,NNE,16,5.0,-999.0,80,-99.99,,,0.00,0,weatherlink.com 1.10,2013-07-02 07:51:00,
2013-07-02 03:06:00,59.0,53.0,29.99,NNE,12,3.0,-999.0,80,-99.99,,,0.00,0,weatherlink.com 1.10,2013-07-02 08:06:00,
2013-07-02 03:21:00,58.7,53.0,29.99,North,355,3.0,-999.0,80,-99.99,,,0.00,0,weatherlink.com 1.10,2013-07-02 08:21:00,
2013-07-02 03:36:00,58.6,52.0,29.99,NNE,15,3.0,-999.0,80,-99.99,,,0.00,0,weatherlink.com 1.10,2013-07-02 08:36:00,
2013-07-02 03:51:00,58.4,53.0,29.99,NNE,22,0.0,-999.0,81,-99.99,,,0.00,0,weatherlink.com 1.10,2013-07-02 08:51:00,
2013-07-02 04:06:00,58.4,52.0,30.00,NNE,26,3.0,-999.0,80,-99.99,,,0.00,0,weatherlink.com 1.10,2013-07-02 09:06:00,
2013-07-02 04:21:00,58.3,52.0,30.00,NNE,20,3.0,-999.0,80,-99.99,,,0.00,0,weatherlink.com 1.10,2013-07-02 09:21:00,
2013-07-02 04:36:00,58.0,52.0,30.00,NNE,21,3.0,-999.0,81,-99.99,,,0.00,0,weatherlink.com 1.10,2013-07-02 09:36:00,
2013-07-02 04:51:00,57.8,52.0,30.00,NNE,22,0.0,-999.0,81,-99.99,,,0.00,0,weatherlink.com 1.10,2013-07-02 09:51:00,
2013-07-02 05:06:00,58.0,52.0,30.00,NNE,23,0.0,-999.0,81,-99.99,,,0.00,0,weatherlink.com 1.10,2013-07-02 10:06:00,
2013-07-02 05:21:00,58.1,52.0,30.00,NNE,23,0.0,-999.0,80,-99.99,,,0.00,0,weatherlink.com 1.10,2013-07-02 10:21:00,
2013-07-02 05:36:00,57.5,52.0,30.00,NNE,24,0.0,-999.0,81,-99.99,,,0.00,5,weatherlink.com 1.10,2013-07-02 10:36:00,
2013-07-02 05:51:00,57.2,52.0,30.00,NNE,28,0.0,-999.0,82,-99.99,,,0.00,14,weatherlink.com 1.10,2013-07-02 10:51:00,
2013-07-02 06:06:00,57.5,52.0,30.01,NNE,30,0.0,-999.0,81,-99.99,,,0.00,26,weatherlink.com 1.10,2013-07-02 11:06:00,
2013-07-02 06:22:00,58.0,53.0,30.01,NNE,30,0.0,-999.0,82,-99.99,,,0.00,60,weatherlink.com 1.10,2013-07-02 11:22:00,
2013-07-02 06:37:00,58.4,53.0,30.01,NNE,23,0.0,-999.0,82,-99.99,,,0.00,97,weatherlink.com 1.10,2013-07-02 11:37:00,
2013-07-02 06:52:00,59.3,54.0,30.02,NNW,344,3.0,-999.0,83,-99.99,,,0.00,149,weatherlink.com 1.10,2013-07-02 11:52:00,
2013-07-02 07:07:00,60.9,55.0,30.02,NNW,344,0.0,-999.0,81,-99.99,,,0.00,204,weatherlink.com 1.10,2013-07-02 12:07:00,
2013-07-02 07:22:00,62.0,55.0,30.03,NNE,21,5.0,-999.0,79,-99.99,,,0.00,211,weatherlink.com 1.10,2013-07-02 12:22:00,
2013-07-02 07:37:00,62.6,55.0,30.03,NNE,15,5.0,-999.0,77,-99.99,,,0.00,257,weatherlink.com 1.10,2013-07-02 12:37:00,
2013-07-02 07:52:00,63.4,55.0,30.03,ENE,62,3.0,-999.0,74,-99.99,,,0.00,315,weatherlink.com 1.10,2013-07-02 12:52:00,
2013-07-02 08:07:00,64.5,56.0,30.03,NNE,26,4.0,-999.0,73,-99.99,,,0.00,387,weatherlink.com 1.10,2013-07-02 13:07:00,
2013-07-02 08:22:00,65.0,55.0,30.03,NE,56,3.0,-999.0,69,-99.99,,,0.00,431,weatherlink.com 1.10,2013-07-02 13:22:00,
2013-07-02 08:37:00,66.0,55.0,30.03,NE,49,7.0,-999.0,68,-99.99,,,0.00,471,weatherlink.com 1.10,2013-07-02 13:37:00,
2013-07-02 08:52:00,67.1,55.0,30.03,North,5,10.0,-999.0,66,-99.99,,,0.00,520,weatherlink.com 1.10,2013-07-02 13:52:00,
2013-07-02 09:07:00,67.9,55.0,30.03,NE,38,6.0,-999.0,63,-99.99,,,0.00,568,weatherlink.com 1.10,2013-07-02 14:07:00,
2013-07-02 09:22:00,68.6,55.0,30.04,NE,52,8.0,-999.0,62,-99.99,,,0.00,622,weatherlink.com 1.10,2013-07-02 14:22:00,
2013-07-02 09:37:00,69.1,56.0,30.03,NE,38,7.0,-999.0,64,-99.99,,,0.00,668,weatherlink.com 1.10,2013-07-02 14:37:00,
2013-07-02 09:52:00,69.8,56.0,30.03,ENE,61,6.0,-999.0,61,-99.99,,,0.00,705,weatherlink.com 1.10,2013-07-02 14:52:00,
2013-07-02 10:07:00,70.4,53.0,30.03,ENE,63,0.0,-999.0,55,-99.99,,,0.00,740,weatherlink.com 1.10,2013-07-02 15:07:00,
2013-07-02 10:23:00,70.9,55.0,30.03,NNE,28,4.0,-999.0,58,-99.99,,,0.00,768,weatherlink.com 1.10,2013-07-02 15:23:00,
2013-07-02 10:38:00,71.8,56.0,30.02,NNE,24,3.0,-999.0,58,-99.99,,,0.00,805,weatherlink.com 1.10,2013-07-02 15:38:00,
2013-07-02 10:53:00,72.5,56.0,30.02,North,11,13.0,-999.0,56,-99.99,,,0.00,814,weatherlink.com 1.10,2013-07-02 15:53:00,
2013-07-02 11:08:00,72.8,55.0,30.02,NNE,32,5.0,-999.0,54,-99.99,,,0.00,861,weatherlink.com 1.10,2013-07-02 16:08:00,
2013-07-02 11:23:00,73.7,57.0,30.01,North,9,6.0,-999.0,57,-99.99,,,0.00,828,weatherlink.com 1.10,2013-07-02 16:23:00,
2013-07-02 11:38:00,73.9,55.0,30.01,ENE,76,10.0,-999.0,52,-99.99,,,0.00,784,weatherlink.com 1.10,2013-07-02 16:38:00,
2013-07-02 11:53:00,73.5,55.0,30.01,North,9,3.0,-999.0,53,-99.99,,,0.00,701,weatherlink.com 1.10,2013-07-02 16:53:00,
2013-07-02 12:08:00,74.2,56.0,30.01,NNW,344,7.0,-999.0,53,-99.99,,,0.00,664,weatherlink.com 1.10,2013-07-02 17:08:00,
2013-07-02 12:23:00,74.0,53.0,30.01,NE,51,8.0,-999.0,48,-99.99,,,0.00,438,weatherlink.com 1.10,2013-07-02 17:23:00,
2013-07-02 12:38:00,74.0,54.0,30.01,ENE,65,2.0,-999.0,50,-99.99,,,0.00,846,weatherlink.com 1.10,2013-07-02 17:38:00,
2013-07-02 12:53:00,74.9,54.0,30.01,NE,53,9.0,-999.0,49,-99.99,,,0.00,828,weatherlink.com 1.10,2013-07-02 17:53:00,
2013-07-02 13:08:00,75.3,56.0,30.00,NE,40,16.0,-999.0,51,-99.99,,,0.00,865,weatherlink.com 1.10,2013-07-02 18:08:00,
2013-07-02 13:23:00,76.0,55.0,30.00,NE,54,9.0,-999.0,48,-99.99,,,0.00,868,weatherlink.com 1.10,2013-07-02 18:23:00,
2013-07-02 13:38:00,76.0,56.0,30.00,NNE,27,5.0,-999.0,50,-99.99,,,0.00,909,weatherlink.com 1.10,2013-07-02 18:38:00,
2013-07-02 13:53:00,76.1,55.0,30.00,NE,50,14.0,-999.0,49,-99.99,,,0.00,909,weatherlink.com 1.10,2013-07-02 18:53:00,
2013-07-02 14:08:00,76.1,55.0,29.99,NNE,16,13.0,-999.0,48,-99.99,,,0.00,802,weatherlink.com 1.10,2013-07-02 19:08:00,
2013-07-02 14:23:00,75.8,54.0,29.99,NNE,17,10.0,-999.0,47,-99.99,,,0.00,916,weatherlink.com 1.10,2013-07-02 19:23:00,
2013-07-02 14:38:00,76.8,55.0,29.98,NE,52,14.0,-999.0,47,-99.99,,,0.00,687,weatherlink.com 1.10,2013-07-02 19:38:00,
2013-07-02 14:53:00,76.5,56.0,29.98,NE,47,16.0,-999.0,49,-99.99,,,0.00,870,weatherlink.com 1.10,2013-07-02 19:53:00,
2013-07-02 15:08:00,76.8,56.0,29.98,NNW,348,11.0,-999.0,49,-99.99,,,0.00,842,weatherlink.com 1.10,2013-07-02 20:08:00,
2013-07-02 15:23:00,76.8,56.0,29.98,NE,38,3.0,-999.0,49,-99.99,,,0.00,754,weatherlink.com 1.10,2013-07-02 20:23:00,
2013-07-02 15:38:00,76.5,57.0,29.98,NE,42,9.0,-999.0,51,-99.99,,,0.00,647,weatherlink.com 1.10,2013-07-02 20:38:00,
2013-07-02 15:53:00,76.5,56.0,29.98,NE,41,5.0,-999.0,50,-99.99,,,0.00,800,weatherlink.com 1.10,2013-07-02 20:53:00,
2013-07-02 16:08:00,76.1,57.0,29.98,NE,51,6.0,-999.0,51,-99.99,,,0.00,803,weatherlink.com 1.10,2013-07-02 21:08:00,
2013-07-02 16:23:00,76.5,57.0,29.98,ENE,69,6.0,-999.0,52,-99.99,,,0.00,598,weatherlink.com 1.10,2013-07-02 21:23:00,
2013-07-02 16:38:00,76.0,58.0,29.98,NE,49,11.0,-999.0,53,-99.99,,,0.00,642,weatherlink.com 1.10,2013-07-02 21:38:00,
2013-07-02 16:53:00,75.8,57.0,29.97,NE,52,6.0,-999.0,52,-99.99,,,0.00,596,weatherlink.com 1.10,2013-07-02 21:53:00,
2013-07-02 17:08:00,76.5,56.0,29.97,NNE,18,9.0,-999.0,49,-99.99,,,0.00,561,weatherlink.com 1.10,2013-07-02 22:08:00,
2013-07-02 17:23:00,76.3,56.0,29.97,ENE,77,4.0,-999.0,49,-99.99,,,0.00,489,weatherlink.com 1.10,2013-07-02 22:23:00,
2013-07-02 17:38:00,75.8,55.0,29.97,ENE,67,10.0,-999.0,49,-99.99,,,0.00,443,weatherlink.com 1.10,2013-07-02 22:38:00,
2013-07-02 17:53:00,75.8,55.0,29.97,East,94,5.0,-999.0,49,-99.99,,,0.00,371,weatherlink.com 1.10,2013-07-02 22:53:00,
2013-07-02 18:08:00,75.6,56.0,29.97,NNE,24,10.0,-999.0,50,-99.99,,,0.00,343,weatherlink.com 1.10,2013-07-02 23:08:00,
2013-07-02 18:23:00,75.1,55.0,29.96,NE,46,6.0,-999.0,49,-99.99,,,0.00,299,weatherlink.com 1.10,2013-07-02 23:23:00,
2013-07-02 18:38:00,74.9,54.0,29.96,ENE,63,3.0,-999.0,49,-99.99,,,0.00,251,weatherlink.com 1.10,2013-07-02 23:38:00,
2013-07-02 18:53:00,74.4,56.0,29.96,ENE,69,5.0,-999.0,53,-99.99,,,0.00,211,weatherlink.com 1.10,2013-07-02 23:53:00,
2013-07-02 19:08:00,73.5,53.0,29.96,NE,51,10.0,-999.0,49,-99.99,,,0.00,172,weatherlink.com 1.10,2013-07-03 00:08:00,
2013-07-02 19:23:00,72.8,54.0,29.96,ENE,59,7.0,-999.0,51,-99.99,,,0.00,128,weatherlink.com 1.10,2013-07-03 00:23:00,
2013-07-02 19:38:00,71.1,53.0,29.96,ENE,69,5.0,-999.0,53,-99.99,,,0.00,49,weatherlink.com 1.10,2013-07-03 00:38:00,
2013-07-02 19:53:00,69.9,53.0,29.96,ENE,63,3.0,-999.0,55,-99.99,,,0.00,37,weatherlink.com 1.10,2013-07-03 00:53:00,
2013-07-02 20:08:00,68.3,54.0,29.97,ENE,63,0.0,-999.0,60,-99.99,,,0.00,23,weatherlink.com 1.10,2013-07-03 01:08:00,
2013-07-02 20:23:00,66.8,53.0,29.97,ENE,66,0.0,-999.0,62,-99.99,,,0.00,12,weatherlink.com 1.10,2013-07-03 01:23:00,
2013-07-02 20:38:00,66.3,52.0,29.97,ENE,63,0.0,-999.0,61,-99.99,,,0.00,0,weatherlink.com 1.10,2013-07-03 01:38:00,
2013-07-02 20:53:00,65.3,53.0,29.97,ENE,59,0.0,-999.0,64,-99.99,,,0.00,0,weatherlink.com 1.10,2013-07-03 01:53:00,
2013-07-02 21:08:00,64.2,52.0,29.98,ENE,59,0.0,-999.0,64,-99.99,,,0.00,0,weatherlink.com 1.10,2013-07-03 02:08:00,
2013-07-02 21:23:00,63.9,52.0,29.98,ENE,60,2.0,-999.0,65,-99.99,,,0.00,0,weatherlink.com 1.10,2013-07-03 02:23:00,
2013-07-02 21:38:00,61.6,52.0,29.99,ENE,67,3.0,-999.0,70,-99.99,,,0.00,0,weatherlink.com 1.10,2013-07-03 02:38:00,
2013-07-02 21:53:00,60.4,52.0,30.00,ENE,71,0.0,-999.0,75,-99.99,,,0.00,0,weatherlink.com 1.10,2013-07-03 02:53:00,
2013-07-02 22:08:00,60.5,53.0,30.00,ENE,78,2.0,-999.0,77,-99.99,,,0.00,0,weatherlink.com 1.10,2013-07-03 03:08:00,
2013-07-02 22:23:00,60.5,54.0,30.00,East,88,1.0,-999.0,79,-99.99,,,0.00,0,weatherlink.com 1.10,2013-07-03 03:23:00,
2013-07-02 22:38:00,60.1,54.0,30.00,East,91,0.0,-999.0,81,-99.99,,,0.00,0,weatherlink.com 1.10,2013-07-03 03:38:00,
2013-07-02 22:53:00,59.8,55.0,30.01,East,92,0.0,-999.0,83,-99.99,,,0.00,0,weatherlink.com 1.10,2013-07-03 03:53:00,
2013-07-02 23:08:00,59.0,54.0,30.01,East,91,0.0,-999.0,83,-99.99,,,0.00,0,weatherlink.com 1.10,2013-07-03 04:08:00,
2013-07-02 23:23:00,58.7,54.0,30.01,East,88,2.0,-999.0,85,-99.99,,,0.00,0,weatherlink.com 1.10,2013-07-03 04:23:00,
2013-07-02 23:38:00,58.0,54.0,30.01,East,86,0.0,-999.0,86,-99.99,,,0.00,0,weatherlink.com 1.10,2013-07-03 04:38:00,
2013-07-02 23:53:00,58.4,55.0,30.01,East,86,0.0,-999.0,87,-99.99,,,0.00,0,weatherlink.com 1.10,2013-07-03 04:53:00,